sensor_id;sensor_type;location;lat;lon;timestamp;temperature;humidity
18408;DHT22;9330;52.210;21.174;2022-08-14T00:00:24;19.70;99.90
18408;DHT22;9330;52.210;21.174;2022-08-14T00:02:51;19.60;99.90
18408;DHT22;9330;52.210;21.174;2022-08-14T00:05:20;19.60;99.90
18408;DHT22;9330;52.210;21.174;2022-08-14T00:07:48;19.60;99.90
18408;DHT22;9330;52.210;21.174;2022-08-14T00:10:20;19.60;99.90
18408;DHT22;9330;52.210;21.174;2022-08-14T00:12:51;19.60;99.90
18408;DHT22;9330;52.210;21.174;2022-08-14T00:15:22;19.60;99.90
18408;DHT22;9330;52.210;21.174;2022-08-14T00:17:50;19.60;99.90
18408;DHT22;9330;52.210;21.174;2022-08-14T00:20:19;19.70;99.90
18408;DHT22;9330;52.210;21.174;2022-08-14T00:22:46;19.60;99.90
18408;DHT22;9330;52.210;21.174;2022-08-14T00:25:13;19.60;99.90
18408;DHT22;9330;52.210;21.174;2022-08-14T00:27:40;19.60;99.90
18408;DHT22;9330;52.210;21.174;2022-08-14T00:30:10;19.60;99.90
18408;DHT22;9330;52.210;21.174;2022-08-14T00:32:39;19.50;99.90
18408;DHT22;9330;52.210;21.174;2022-08-14T00:35:08;19.50;99.90
18408;DHT22;9330;52.210;21.174;2022-08-14T00:37:37;19.50;99.90
18408;DHT22;9330;52.210;21.174;2022-08-14T00:40:07;19.50;99.90
18408;DHT22;9330;52.210;21.174;2022-08-14T00:42:34;19.50;99.90
18408;DHT22;9330;52.210;21.174;2022-08-14T00:45:01;19.50;99.90
18408;DHT22;9330;52.210;21.174;2022-08-14T00:47:29;19.40;99.90
18408;DHT22;9330;52.210;21.174;2022-08-14T00:49:57;19.40;99.90
18408;DHT22;9330;52.210;21.174;2022-08-14T00:52:24;19.40;99.90
18408;DHT22;9330;52.210;21.174;2022-08-14T00:54:52;19.40;99.90
18408;DHT22;9330;52.210;21.174;2022-08-14T00:57:19;19.40;99.90
18408;DHT22;9330;52.210;21.174;2022-08-14T00:59:47;19.50;99.90
18408;DHT22;9330;52.210;21.174;2022-08-14T01:02:15;19.40;99.90
18408;DHT22;9330;52.210;21.174;2022-08-14T01:04:44;19.40;99.90
18408;DHT22;9330;52.210;21.174;2022-08-14T01:07:13;19.40;99.90
18408;DHT22;9330;52.210;21.174;2022-08-14T01:09:47;19.40;99.90
18408;DHT22;9330;52.210;21.174;2022-08-14T01:12:15;19.40;99.90
18408;DHT22;9330;52.210;21.174;2022-08-14T01:14:43;19.40;99.90
18408;DHT22;9330;52.210;21.174;2022-08-14T01:17:10;19.40;99.90
18408;DHT22;9330;52.210;21.174;2022-08-14T01:19:37;19.40;99.90
18408;DHT22;9330;52.210;21.174;2022-08-14T01:22:23;19.40;99.90
18408;DHT22;9330;52.210;21.174;2022-08-14T01:24:50;19.40;99.90
18408;DHT22;9330;52.210;21.174;2022-08-14T01:27:20;19.40;99.90
18408;DHT22;9330;52.210;21.174;2022-08-14T01:29:50;19.30;99.90
18408;DHT22;9330;52.210;21.174;2022-08-14T01:32:18;19.30;99.90
18408;DHT22;9330;52.210;21.174;2022-08-14T01:34:47;19.30;99.90
18408;DHT22;9330;52.210;21.174;2022-08-14T01:37:15;19.20;99.90
18408;DHT22;9330;52.210;21.174;2022-08-14T01:39:43;19.20;99.90
18408;DHT22;9330;52.210;21.174;2022-08-14T01:42:10;19.20;99.90
18408;DHT22;9330;52.210;21.174;2022-08-14T01:44:37;19.20;99.90
18408;DHT22;9330;52.210;21.174;2022-08-14T01:47:08;19.20;99.90
18408;DHT22;9330;52.210;21.174;2022-08-14T01:49:38;19.10;99.90
18408;DHT22;9330;52.210;21.174;2022-08-14T01:52:06;19.20;99.90
18408;DHT22;9330;52.210;21.174;2022-08-14T01:54:34;19.10;99.90
18408;DHT22;9330;52.210;21.174;2022-08-14T01:57:02;19.10;99.90
18408;DHT22;9330;52.210;21.174;2022-08-14T01:59:36;19.00;99.90
18408;DHT22;9330;52.210;21.174;2022-08-14T02:02:07;19.10;99.90
18408;DHT22;9330;52.210;21.174;2022-08-14T02:04:37;19.10;99.90
18408;DHT22;9330;52.210;21.174;2022-08-14T02:07:05;19.00;99.90
18408;DHT22;9330;52.210;21.174;2022-08-14T02:09:32;19.00;99.90
18408;DHT22;9330;52.210;21.174;2022-08-14T02:12:06;19.10;99.90
18408;DHT22;9330;52.210;21.174;2022-08-14T02:14:34;19.10;99.90
18408;DHT22;9330;52.210;21.174;2022-08-14T02:17:01;19.10;99.90
18408;DHT22;9330;52.210;21.174;2022-08-14T02:19:30;19.00;99.90
18408;DHT22;9330;52.210;21.174;2022-08-14T02:22:00;19.10;99.90
18408;DHT22;9330;52.210;21.174;2022-08-14T02:24:28;19.00;99.90
18408;DHT22;9330;52.210;21.174;2022-08-14T02:26:56;19.00;99.90
18408;DHT22;9330;52.210;21.174;2022-08-14T02:29:27;19.10;99.90
18408;DHT22;9330;52.210;21.174;2022-08-14T02:31:58;19.00;99.90
18408;DHT22;9330;52.210;21.174;2022-08-14T02:34:30;19.00;99.90
18408;DHT22;9330;52.210;21.174;2022-08-14T02:36:59;19.10;99.90
18408;DHT22;9330;52.210;21.174;2022-08-14T02:39:28;19.00;99.90
18408;DHT22;9330;52.210;21.174;2022-08-14T02:41:55;19.10;99.90
18408;DHT22;9330;52.210;21.174;2022-08-14T02:44:23;19.00;99.90
18408;DHT22;9330;52.210;21.174;2022-08-14T02:46:53;19.00;99.90
18408;DHT22;9330;52.210;21.174;2022-08-14T02:49:22;19.00;99.90
18408;DHT22;9330;52.210;21.174;2022-08-14T02:51:51;19.00;99.90
18408;DHT22;9330;52.210;21.174;2022-08-14T02:54:19;19.00;99.90
18408;DHT22;9330;52.210;21.174;2022-08-14T02:56:47;19.10;99.90
18408;DHT22;9330;52.210;21.174;2022-08-14T02:59:16;18.90;99.90
18408;DHT22;9330;52.210;21.174;2022-08-14T03:01:43;18.90;99.90
18408;DHT22;9330;52.210;21.174;2022-08-14T03:04:13;18.90;99.90
18408;DHT22;9330;52.210;21.174;2022-08-14T03:06:41;18.90;99.90
18408;DHT22;9330;52.210;21.174;2022-08-14T03:09:09;18.80;99.90
18408;DHT22;9330;52.210;21.174;2022-08-14T03:11:37;18.80;99.90
18408;DHT22;9330;52.210;21.174;2022-08-14T03:14:07;18.90;99.90
18408;DHT22;9330;52.210;21.174;2022-08-14T03:16:34;18.80;99.90
18408;DHT22;9330;52.210;21.174;2022-08-14T03:19:03;18.90;99.90
18408;DHT22;9330;52.210;21.174;2022-08-14T03:21:34;18.90;99.90
18408;DHT22;9330;52.210;21.174;2022-08-14T03:24:02;18.80;99.90
18408;DHT22;9330;52.210;21.174;2022-08-14T03:26:36;18.80;99.90
18408;DHT22;9330;52.210;21.174;2022-08-14T03:29:04;18.80;99.90
18408;DHT22;9330;52.210;21.174;2022-08-14T03:31:32;18.80;99.90
18408;DHT22;9330;52.210;21.174;2022-08-14T03:33:59;18.80;99.90
18408;DHT22;9330;52.210;21.174;2022-08-14T03:36:26;18.80;99.90
18408;DHT22;9330;52.210;21.174;2022-08-14T03:38:58;18.70;99.90
18408;DHT22;9330;52.210;21.174;2022-08-14T03:41:26;18.70;99.90
18408;DHT22;9330;52.210;21.174;2022-08-14T03:43:55;18.80;99.90
18408;DHT22;9330;52.210;21.174;2022-08-14T03:46:24;18.70;99.90
18408;DHT22;9330;52.210;21.174;2022-08-14T03:48:52;18.80;99.90
18408;DHT22;9330;52.210;21.174;2022-08-14T03:51:21;18.80;99.90
18408;DHT22;9330;52.210;21.174;2022-08-14T03:53:54;18.80;99.90
18408;DHT22;9330;52.210;21.174;2022-08-14T03:56:24;18.80;99.90
18408;DHT22;9330;52.210;21.174;2022-08-14T03:58:54;18.80;99.90
18408;DHT22;9330;52.210;21.174;2022-08-14T04:01:23;18.80;99.90
18408;DHT22;9330;52.210;21.174;2022-08-14T04:03:53;18.90;99.90
18408;DHT22;9330;52.210;21.174;2022-08-14T04:06:22;18.80;99.90
18408;DHT22;9330;52.210;21.174;2022-08-14T04:08:50;18.80;99.90
18408;DHT22;9330;52.210;21.174;2022-08-14T04:11:18;18.90;99.90
18408;DHT22;9330;52.210;21.174;2022-08-14T04:13:46;19.00;99.90
18408;DHT22;9330;52.210;21.174;2022-08-14T04:16:16;19.00;99.90
18408;DHT22;9330;52.210;21.174;2022-08-14T04:18:48;19.00;99.90
18408;DHT22;9330;52.210;21.174;2022-08-14T04:21:16;19.00;99.90
18408;DHT22;9330;52.210;21.174;2022-08-14T04:23:44;19.00;99.90
18408;DHT22;9330;52.210;21.174;2022-08-14T04:26:13;19.10;99.90
18408;DHT22;9330;52.210;21.174;2022-08-14T04:28:43;19.10;99.90
18408;DHT22;9330;52.210;21.174;2022-08-14T04:31:12;19.20;99.90
18408;DHT22;9330;52.210;21.174;2022-08-14T04:33:39;19.20;99.90
18408;DHT22;9330;52.210;21.174;2022-08-14T04:36:07;19.20;99.90
18408;DHT22;9330;52.210;21.174;2022-08-14T04:38:34;19.20;99.90
18408;DHT22;9330;52.210;21.174;2022-08-14T04:41:18;19.30;99.90
18408;DHT22;9330;52.210;21.174;2022-08-14T04:44:03;19.40;99.90
18408;DHT22;9330;52.210;21.174;2022-08-14T04:46:34;19.40;99.90
18408;DHT22;9330;52.210;21.174;2022-08-14T04:49:02;19.50;99.90
18408;DHT22;9330;52.210;21.174;2022-08-14T04:51:28;19.60;99.90
18408;DHT22;9330;52.210;21.174;2022-08-14T04:53:55;19.60;99.90
18408;DHT22;9330;52.210;21.174;2022-08-14T04:56:25;19.60;99.90
18408;DHT22;9330;52.210;21.174;2022-08-14T04:58:55;19.70;99.90
18408;DHT22;9330;52.210;21.174;2022-08-14T05:01:26;19.60;99.90
18408;DHT22;9330;52.210;21.174;2022-08-14T05:03:54;19.70;99.90
18408;DHT22;9330;52.210;21.174;2022-08-14T05:06:24;19.70;99.90
18408;DHT22;9330;52.210;21.174;2022-08-14T05:08:52;19.70;99.90
18408;DHT22;9330;52.210;21.174;2022-08-14T05:11:19;19.80;99.90
18408;DHT22;9330;52.210;21.174;2022-08-14T05:13:47;20.00;99.90
18408;DHT22;9330;52.210;21.174;2022-08-14T05:16:14;20.00;99.90
18408;DHT22;9330;52.210;21.174;2022-08-14T05:18:41;20.10;99.90
18408;DHT22;9330;52.210;21.174;2022-08-14T05:21:12;20.20;99.90
18408;DHT22;9330;52.210;21.174;2022-08-14T05:23:39;20.40;99.90
18408;DHT22;9330;52.210;21.174;2022-08-14T05:26:06;20.40;99.90
18408;DHT22;9330;52.210;21.174;2022-08-14T05:28:42;20.50;99.90
18408;DHT22;9330;52.210;21.174;2022-08-14T05:31:12;20.60;99.90
18408;DHT22;9330;52.210;21.174;2022-08-14T05:33:43;20.70;99.90
18408;DHT22;9330;52.210;21.174;2022-08-14T05:36:12;20.70;99.90
18408;DHT22;9330;52.210;21.174;2022-08-14T05:38:42;20.70;99.90
18408;DHT22;9330;52.210;21.174;2022-08-14T05:41:12;20.70;99.90
18408;DHT22;9330;52.210;21.174;2022-08-14T05:43:40;20.70;99.90
18408;DHT22;9330;52.210;21.174;2022-08-14T05:46:09;20.70;99.90
18408;DHT22;9330;52.210;21.174;2022-08-14T05:48:38;20.80;99.90
18408;DHT22;9330;52.210;21.174;2022-08-14T05:51:07;20.80;99.90
18408;DHT22;9330;52.210;21.174;2022-08-14T05:53:36;20.80;99.90
18408;DHT22;9330;52.210;21.174;2022-08-14T05:56:03;20.80;99.90
18408;DHT22;9330;52.210;21.174;2022-08-14T05:58:30;20.80;99.90
18408;DHT22;9330;52.210;21.174;2022-08-14T06:00:57;20.80;99.90
18408;DHT22;9330;52.210;21.174;2022-08-14T06:03:24;20.80;99.90
18408;DHT22;9330;52.210;21.174;2022-08-14T06:05:53;20.80;99.90
18408;DHT22;9330;52.210;21.174;2022-08-14T06:08:22;20.80;99.90
18408;DHT22;9330;52.210;21.174;2022-08-14T06:10:52;20.90;99.90
18408;DHT22;9330;52.210;21.174;2022-08-14T06:13:20;20.90;99.90
18408;DHT22;9330;52.210;21.174;2022-08-14T06:15:48;21.00;99.90
18408;DHT22;9330;52.210;21.174;2022-08-14T06:18:17;21.10;99.90
18408;DHT22;9330;52.210;21.174;2022-08-14T06:20:44;21.10;99.90
18408;DHT22;9330;52.210;21.174;2022-08-14T06:23:11;21.20;99.90
18408;DHT22;9330;52.210;21.174;2022-08-14T06:25:38;21.20;99.90
18408;DHT22;9330;52.210;21.174;2022-08-14T06:28:07;21.30;99.90
18408;DHT22;9330;52.210;21.174;2022-08-14T06:30:34;21.30;99.90
18408;DHT22;9330;52.210;21.174;2022-08-14T06:33:02;21.40;99.90
18408;DHT22;9330;52.210;21.174;2022-08-14T06:35:30;21.40;99.90
18408;DHT22;9330;52.210;21.174;2022-08-14T06:37:58;21.50;99.90
18408;DHT22;9330;52.210;21.174;2022-08-14T06:40:27;21.50;99.90
18408;DHT22;9330;52.210;21.174;2022-08-14T06:42:55;21.60;99.90
18408;DHT22;9330;52.210;21.174;2022-08-14T06:45:24;21.90;99.90
18408;DHT22;9330;52.210;21.174;2022-08-14T06:47:52;22.20;99.90
18408;DHT22;9330;52.210;21.174;2022-08-14T06:50:20;22.40;99.90
18408;DHT22;9330;52.210;21.174;2022-08-14T06:52:48;22.50;99.90
18408;DHT22;9330;52.210;21.174;2022-08-14T06:55:16;22.50;99.90
18408;DHT22;9330;52.210;21.174;2022-08-14T06:57:45;22.70;99.90
18408;DHT22;9330;52.210;21.174;2022-08-14T07:00:15;22.80;99.90
18408;DHT22;9330;52.210;21.174;2022-08-14T07:02:44;22.90;99.90
18408;DHT22;9330;52.210;21.174;2022-08-14T07:05:29;23.10;99.90
18408;DHT22;9330;52.210;21.174;2022-08-14T07:08:14;23.30;99.90
18408;DHT22;9330;52.210;21.174;2022-08-14T07:10:43;23.50;99.90
18408;DHT22;9330;52.210;21.174;2022-08-14T07:13:11;23.70;99.90
18408;DHT22;9330;52.210;21.174;2022-08-14T07:15:38;23.80;99.90
18408;DHT22;9330;52.210;21.174;2022-08-14T07:18:08;23.80;99.90
18408;DHT22;9330;52.210;21.174;2022-08-14T07:20:36;24.00;99.90
18408;DHT22;9330;52.210;21.174;2022-08-14T07:23:05;24.20;99.90
18408;DHT22;9330;52.210;21.174;2022-08-14T07:25:34;24.30;99.90
18408;DHT22;9330;52.210;21.174;2022-08-14T07:28:09;24.40;99.90
18408;DHT22;9330;52.210;21.174;2022-08-14T07:30:49;24.40;99.90
18408;DHT22;9330;52.210;21.174;2022-08-14T07:33:19;24.40;99.90
18408;DHT22;9330;52.210;21.174;2022-08-14T07:35:47;24.60;99.90
18408;DHT22;9330;52.210;21.174;2022-08-14T07:38:17;24.70;99.90
18408;DHT22;9330;52.210;21.174;2022-08-14T07:40:44;24.60;99.90
18408;DHT22;9330;52.210;21.174;2022-08-14T07:43:12;24.40;99.90
18408;DHT22;9330;52.210;21.174;2022-08-14T07:45:39;24.40;99.90
18408;DHT22;9330;52.210;21.174;2022-08-14T07:48:09;24.40;99.90
18408;DHT22;9330;52.210;21.174;2022-08-14T07:50:37;24.60;99.90
18408;DHT22;9330;52.210;21.174;2022-08-14T07:53:06;24.70;99.90
18408;DHT22;9330;52.210;21.174;2022-08-14T07:55:33;24.70;99.90
18408;DHT22;9330;52.210;21.174;2022-08-14T07:58:02;24.60;99.90
18408;DHT22;9330;52.210;21.174;2022-08-14T08:00:29;24.60;99.90
18408;DHT22;9330;52.210;21.174;2022-08-14T08:02:56;24.70;99.90
18408;DHT22;9330;52.210;21.174;2022-08-14T08:05:27;24.80;99.90
18408;DHT22;9330;52.210;21.174;2022-08-14T08:07:55;25.10;99.90
18408;DHT22;9330;52.210;21.174;2022-08-14T08:10:25;25.10;99.90
18408;DHT22;9330;52.210;21.174;2022-08-14T08:13:00;25.20;99.90
18408;DHT22;9330;52.210;21.174;2022-08-14T08:15:30;25.20;99.90
18408;DHT22;9330;52.210;21.174;2022-08-14T08:17:58;25.00;99.90
18408;DHT22;9330;52.210;21.174;2022-08-14T08:20:29;24.90;99.90
18408;DHT22;9330;52.210;21.174;2022-08-14T08:22:58;24.70;99.90
18408;DHT22;9330;52.210;21.174;2022-08-14T08:25:28;24.60;99.90
18408;DHT22;9330;52.210;21.174;2022-08-14T08:27:58;24.60;99.90
18408;DHT22;9330;52.210;21.174;2022-08-14T08:30:26;24.50;99.90
18408;DHT22;9330;52.210;21.174;2022-08-14T08:32:58;24.50;99.90
18408;DHT22;9330;52.210;21.174;2022-08-14T08:35:27;24.40;99.90
18408;DHT22;9330;52.210;21.174;2022-08-14T08:41:10;24.30;99.90
18408;DHT22;9330;52.210;21.174;2022-08-14T08:43:38;24.40;99.90
18408;DHT22;9330;52.210;21.174;2022-08-14T08:46:08;24.40;99.90
18408;DHT22;9330;52.210;21.174;2022-08-14T08:48:43;24.30;99.90
18408;DHT22;9330;52.210;21.174;2022-08-14T08:51:21;24.30;99.90
18408;DHT22;9330;52.210;21.174;2022-08-14T08:53:55;24.40;99.90
18408;DHT22;9330;52.210;21.174;2022-08-14T08:56:34;24.50;99.90
18408;DHT22;9330;52.210;21.174;2022-08-14T08:59:02;24.40;99.90
18408;DHT22;9330;52.210;21.174;2022-08-14T09:01:29;24.60;99.90
18408;DHT22;9330;52.210;21.174;2022-08-14T09:04:01;24.60;99.90
18408;DHT22;9330;52.210;21.174;2022-08-14T09:06:30;24.60;99.90
18408;DHT22;9330;52.210;21.174;2022-08-14T09:08:57;24.90;99.90
18408;DHT22;9330;52.210;21.174;2022-08-14T09:11:24;25.00;99.90
18408;DHT22;9330;52.210;21.174;2022-08-14T09:13:53;25.10;99.90
18408;DHT22;9330;52.210;21.174;2022-08-14T09:16:21;25.10;99.90
18408;DHT22;9330;52.210;21.174;2022-08-14T09:18:50;25.00;99.90
18408;DHT22;9330;52.210;21.174;2022-08-14T09:21:17;25.10;99.90
18408;DHT22;9330;52.210;21.174;2022-08-14T09:23:45;25.30;99.90
18408;DHT22;9330;52.210;21.174;2022-08-14T09:26:12;25.30;99.90
18408;DHT22;9330;52.210;21.174;2022-08-14T09:28:39;25.30;99.90
18408;DHT22;9330;52.210;21.174;2022-08-14T09:31:08;25.30;99.90
18408;DHT22;9330;52.210;21.174;2022-08-14T09:34:12;25.40;99.90
18408;DHT22;9330;52.210;21.174;2022-08-14T09:36:54;25.60;99.90
18408;DHT22;9330;52.210;21.174;2022-08-14T09:39:40;25.90;99.90
18408;DHT22;9330;52.210;21.174;2022-08-14T09:42:34;26.00;99.90
18408;DHT22;9330;52.210;21.174;2022-08-14T09:45:11;25.90;99.90
18408;DHT22;9330;52.210;21.174;2022-08-14T09:47:43;25.90;99.90
18408;DHT22;9330;52.210;21.174;2022-08-14T09:50:19;25.90;99.90
18408;DHT22;9330;52.210;21.174;2022-08-14T09:52:49;25.80;99.90
18408;DHT22;9330;52.210;21.174;2022-08-14T09:55:17;25.90;99.90
18408;DHT22;9330;52.210;21.174;2022-08-14T09:57:45;26.00;99.90
18408;DHT22;9330;52.210;21.174;2022-08-14T10:00:13;26.20;99.90
18408;DHT22;9330;52.210;21.174;2022-08-14T10:02:55;26.20;99.90
18408;DHT22;9330;52.210;21.174;2022-08-14T10:05:29;26.40;99.90
18408;DHT22;9330;52.210;21.174;2022-08-14T10:07:56;26.50;99.90
18408;DHT22;9330;52.210;21.174;2022-08-14T10:10:29;26.50;99.90
18408;DHT22;9330;52.210;21.174;2022-08-14T10:12:56;26.30;99.90
18408;DHT22;9330;52.210;21.174;2022-08-14T10:15:26;26.10;99.90
18408;DHT22;9330;52.210;21.174;2022-08-14T10:18:06;25.90;99.90
18408;DHT22;9330;52.210;21.174;2022-08-14T10:20:36;25.70;99.90
18408;DHT22;9330;52.210;21.174;2022-08-14T10:23:11;25.60;99.90
18408;DHT22;9330;52.210;21.174;2022-08-14T10:25:40;25.50;99.90
18408;DHT22;9330;52.210;21.174;2022-08-14T10:28:09;25.40;99.90
18408;DHT22;9330;52.210;21.174;2022-08-14T10:30:40;25.40;99.90
18408;DHT22;9330;52.210;21.174;2022-08-14T10:33:09;25.40;99.90
18408;DHT22;9330;52.210;21.174;2022-08-14T10:35:41;25.40;99.90
18408;DHT22;9330;52.210;21.174;2022-08-14T10:38:08;25.50;99.90
18408;DHT22;9330;52.210;21.174;2022-08-14T10:40:36;25.60;99.90
18408;DHT22;9330;52.210;21.174;2022-08-14T10:43:16;25.60;99.90
18408;DHT22;9330;52.210;21.174;2022-08-14T10:45:53;25.70;99.90
18408;DHT22;9330;52.210;21.174;2022-08-14T10:48:22;25.80;99.90
18408;DHT22;9330;52.210;21.174;2022-08-14T10:50:49;26.00;99.90
18408;DHT22;9330;52.210;21.174;2022-08-14T10:53:29;26.00;99.90
18408;DHT22;9330;52.210;21.174;2022-08-14T10:55:58;26.10;99.90
18408;DHT22;9330;52.210;21.174;2022-08-14T10:58:30;26.30;99.90
18408;DHT22;9330;52.210;21.174;2022-08-14T11:00:59;26.30;99.90
18408;DHT22;9330;52.210;21.174;2022-08-14T11:03:41;26.30;99.90
18408;DHT22;9330;52.210;21.174;2022-08-14T11:06:15;26.40;99.90
18408;DHT22;9330;52.210;21.174;2022-08-14T11:08:45;26.30;99.90
18408;DHT22;9330;52.210;21.174;2022-08-14T11:11:12;26.40;99.90
18408;DHT22;9330;52.210;21.174;2022-08-14T11:13:41;26.40;99.90
18408;DHT22;9330;52.210;21.174;2022-08-14T11:16:11;26.40;99.90
18408;DHT22;9330;52.210;21.174;2022-08-14T11:18:43;26.50;99.90
18408;DHT22;9330;52.210;21.174;2022-08-14T11:21:14;26.50;99.90
18408;DHT22;9330;52.210;21.174;2022-08-14T11:23:44;26.60;99.90
18408;DHT22;9330;52.210;21.174;2022-08-14T11:26:13;26.50;99.90
18408;DHT22;9330;52.210;21.174;2022-08-14T11:28:45;26.60;99.90
18408;DHT22;9330;52.210;21.174;2022-08-14T11:31:12;26.60;99.90
18408;DHT22;9330;52.210;21.174;2022-08-14T11:33:41;26.60;99.90
18408;DHT22;9330;52.210;21.174;2022-08-14T11:36:11;26.50;99.90
18408;DHT22;9330;52.210;21.174;2022-08-14T11:38:43;26.50;99.90
18408;DHT22;9330;52.210;21.174;2022-08-14T11:41:14;26.40;99.90
18408;DHT22;9330;52.210;21.174;2022-08-14T11:43:43;26.30;99.90
18408;DHT22;9330;52.210;21.174;2022-08-14T11:46:11;26.30;99.90
18408;DHT22;9330;52.210;21.174;2022-08-14T11:49:10;26.40;99.90
18408;DHT22;9330;52.210;21.174;2022-08-14T11:51:37;26.60;99.90
18408;DHT22;9330;52.210;21.174;2022-08-14T11:54:06;27.00;99.90
18408;DHT22;9330;52.210;21.174;2022-08-14T11:56:34;27.30;99.90
18408;DHT22;9330;52.210;21.174;2022-08-14T11:59:01;27.70;99.90
18408;DHT22;9330;52.210;21.174;2022-08-14T12:01:29;28.10;99.90
18408;DHT22;9330;52.210;21.174;2022-08-14T12:04:09;28.30;99.90
18408;DHT22;9330;52.210;21.174;2022-08-14T12:06:45;28.50;99.90
18408;DHT22;9330;52.210;21.174;2022-08-14T12:09:27;28.80;99.90
18408;DHT22;9330;52.210;21.174;2022-08-14T12:11:54;29.00;99.90
18408;DHT22;9330;52.210;21.174;2022-08-14T12:14:21;29.20;99.90
18408;DHT22;9330;52.210;21.174;2022-08-14T12:16:58;29.30;99.90
18408;DHT22;9330;52.210;21.174;2022-08-14T12:19:27;29.60;99.90
18408;DHT22;9330;52.210;21.174;2022-08-14T12:21:54;29.80;99.90
18408;DHT22;9330;52.210;21.174;2022-08-14T12:24:27;30.10;99.90
18408;DHT22;9330;52.210;21.174;2022-08-14T12:26:55;30.30;99.90
18408;DHT22;9330;52.210;21.174;2022-08-14T12:29:22;30.50;99.90
18408;DHT22;9330;52.210;21.174;2022-08-14T12:31:57;30.30;99.90
18408;DHT22;9330;52.210;21.174;2022-08-14T12:34:31;30.30;99.90
18408;DHT22;9330;52.210;21.174;2022-08-14T12:37:02;30.00;99.90
18408;DHT22;9330;52.210;21.174;2022-08-14T12:39:30;30.10;99.90
18408;DHT22;9330;52.210;21.174;2022-08-14T12:41:58;30.20;99.90
18408;DHT22;9330;52.210;21.174;2022-08-14T12:44:31;30.40;99.90
18408;DHT22;9330;52.210;21.174;2022-08-14T12:47:07;30.30;99.90
18408;DHT22;9330;52.210;21.174;2022-08-14T12:49:47;30.30;99.90
18408;DHT22;9330;52.210;21.174;2022-08-14T12:52:26;29.90;99.90
18408;DHT22;9330;52.210;21.174;2022-08-14T12:54:57;29.90;99.90
18408;DHT22;9330;52.210;21.174;2022-08-14T12:57:33;29.60;99.90
18408;DHT22;9330;52.210;21.174;2022-08-14T13:00:10;29.50;99.90
18408;DHT22;9330;52.210;21.174;2022-08-14T13:02:40;29.50;99.90
18408;DHT22;9330;52.210;21.174;2022-08-14T13:05:10;29.70;99.90
18408;DHT22;9330;52.210;21.174;2022-08-14T13:07:39;29.60;99.90
18408;DHT22;9330;52.210;21.174;2022-08-14T13:10:07;29.60;99.90
18408;DHT22;9330;52.210;21.174;2022-08-14T13:12:36;29.50;99.90
18408;DHT22;9330;52.210;21.174;2022-08-14T13:15:05;29.50;99.90
18408;DHT22;9330;52.210;21.174;2022-08-14T13:17:39;29.30;99.90
18408;DHT22;9330;52.210;21.174;2022-08-14T13:20:10;29.00;99.90
18408;DHT22;9330;52.210;21.174;2022-08-14T13:22:39;28.90;99.90
18408;DHT22;9330;52.210;21.174;2022-08-14T13:25:08;29.00;99.90
18408;DHT22;9330;52.210;21.174;2022-08-14T13:27:36;28.90;99.90
18408;DHT22;9330;52.210;21.174;2022-08-14T13:30:10;28.80;99.90
18408;DHT22;9330;52.210;21.174;2022-08-14T13:32:37;28.90;99.90
18408;DHT22;9330;52.210;21.174;2022-08-14T13:35:06;28.90;99.90
18408;DHT22;9330;52.210;21.174;2022-08-14T13:37:39;28.80;99.90
18408;DHT22;9330;52.210;21.174;2022-08-14T13:40:08;28.80;99.90
18408;DHT22;9330;52.210;21.174;2022-08-14T13:42:41;28.80;99.90
18408;DHT22;9330;52.210;21.174;2022-08-14T13:45:10;28.80;99.90
18408;DHT22;9330;52.210;21.174;2022-08-14T13:47:38;28.80;99.90
18408;DHT22;9330;52.210;21.174;2022-08-14T13:50:08;28.80;99.90
18408;DHT22;9330;52.210;21.174;2022-08-14T13:52:41;28.90;99.90
18408;DHT22;9330;52.210;21.174;2022-08-14T13:55:09;29.00;99.90
18408;DHT22;9330;52.210;21.174;2022-08-14T13:57:39;29.10;99.90
18408;DHT22;9330;52.210;21.174;2022-08-14T14:00:10;29.30;99.90
18408;DHT22;9330;52.210;21.174;2022-08-14T14:02:42;29.30;99.90
18408;DHT22;9330;52.210;21.174;2022-08-14T14:05:12;29.20;99.90
18408;DHT22;9330;52.210;21.174;2022-08-14T14:07:44;29.00;99.90
18408;DHT22;9330;52.210;21.174;2022-08-14T14:10:12;28.90;99.90
18408;DHT22;9330;52.210;21.174;2022-08-14T14:12:40;28.80;99.90
18408;DHT22;9330;52.210;21.174;2022-08-14T14:15:09;28.60;99.90
18408;DHT22;9330;52.210;21.174;2022-08-14T14:17:39;28.50;99.90
18408;DHT22;9330;52.210;21.174;2022-08-14T14:20:09;28.50;99.90
18408;DHT22;9330;52.210;21.174;2022-08-14T14:22:41;28.40;99.90
18408;DHT22;9330;52.210;21.174;2022-08-14T14:25:09;28.50;99.90
18408;DHT22;9330;52.210;21.174;2022-08-14T14:27:40;28.50;99.90
18408;DHT22;9330;52.210;21.174;2022-08-14T14:30:09;28.60;99.90
18408;DHT22;9330;52.210;21.174;2022-08-14T14:32:37;28.70;99.90
18408;DHT22;9330;52.210;21.174;2022-08-14T14:35:10;29.00;99.90
18408;DHT22;9330;52.210;21.174;2022-08-14T14:37:38;29.30;99.90
18408;DHT22;9330;52.210;21.174;2022-08-14T14:40:09;29.60;99.90
18408;DHT22;9330;52.210;21.174;2022-08-14T14:42:44;29.70;99.90
18408;DHT22;9330;52.210;21.174;2022-08-14T14:45:16;29.70;99.90
18408;DHT22;9330;52.210;21.174;2022-08-14T14:47:46;29.60;99.90
18408;DHT22;9330;52.210;21.174;2022-08-14T14:50:13;29.50;99.90
18408;DHT22;9330;52.210;21.174;2022-08-14T14:52:40;29.30;99.90
18408;DHT22;9330;52.210;21.174;2022-08-14T14:55:13;29.00;99.90
18408;DHT22;9330;52.210;21.174;2022-08-14T14:57:42;28.70;99.90
18408;DHT22;9330;52.210;21.174;2022-08-14T15:00:13;28.40;99.90
18408;DHT22;9330;52.210;21.174;2022-08-14T15:02:42;28.20;99.90
18408;DHT22;9330;52.210;21.174;2022-08-14T15:05:11;28.00;99.90
18408;DHT22;9330;52.210;21.174;2022-08-14T15:07:39;27.90;99.90
18408;DHT22;9330;52.210;21.174;2022-08-14T15:10:11;27.80;99.90
18408;DHT22;9330;52.210;21.174;2022-08-14T15:12:38;27.70;99.90
18408;DHT22;9330;52.210;21.174;2022-08-14T15:15:06;27.70;99.90
18408;DHT22;9330;52.210;21.174;2022-08-14T15:17:34;27.70;99.90
18408;DHT22;9330;52.210;21.174;2022-08-14T15:20:02;27.60;99.90
18408;DHT22;9330;52.210;21.174;2022-08-14T15:22:31;27.60;99.90
18408;DHT22;9330;52.210;21.174;2022-08-14T15:24:59;27.70;99.90
18408;DHT22;9330;52.210;21.174;2022-08-14T15:27:28;27.70;99.90
18408;DHT22;9330;52.210;21.174;2022-08-14T15:29:56;27.70;99.90
18408;DHT22;9330;52.210;21.174;2022-08-14T15:32:23;27.60;99.90
18408;DHT22;9330;52.210;21.174;2022-08-14T15:34:50;27.50;99.90
18408;DHT22;9330;52.210;21.174;2022-08-14T15:37:18;27.40;99.90
18408;DHT22;9330;52.210;21.174;2022-08-14T15:39:46;27.30;99.90
18408;DHT22;9330;52.210;21.174;2022-08-14T15:42:13;27.20;99.90
18408;DHT22;9330;52.210;21.174;2022-08-14T15:44:43;27.10;99.90
18408;DHT22;9330;52.210;21.174;2022-08-14T15:47:10;27.10;99.90
18408;DHT22;9330;52.210;21.174;2022-08-14T15:49:38;27.00;99.90